sensor_id;sensor_type;location;lat;lon;timestamp;P1;P2;P0
67376;PMS7003;54261;46.086;6.588;2024-01-30T00:01:44;6.00;6.00;4.00
67376;PMS7003;54261;46.086;6.588;2024-01-30T00:06:46;4.00;4.00;3.00
67376;PMS7003;54261;46.086;6.588;2024-01-30T00:11:48;4.00;4.00;3.50
67376;PMS7003;54261;46.086;6.588;2024-01-30T00:16:51;4.00;3.00;3.00
67376;PMS7003;54261;46.086;6.588;2024-01-30T00:21:53;4.25;3.00;2.00
67376;PMS7003;54261;46.086;6.588;2024-01-30T00:26:55;2.25;2.25;2.00
67376;PMS7003;54261;46.086;6.588;2024-01-30T00:31:57;6.25;5.75;3.50
67376;PMS7003;54261;46.086;6.588;2024-01-30T00:36:59;5.75;3.00;2.75
67376;PMS7003;54261;46.086;6.588;2024-01-30T00:42:01;3.50;3.50;3.00
67376;PMS7003;54261;46.086;6.588;2024-01-30T00:47:03;4.75;4.75;2.50
67376;PMS7003;54261;46.086;6.588;2024-01-30T00:52:06;4.00;4.00;3.00
67376;PMS7003;54261;46.086;6.588;2024-01-30T00:57:08;6.75;6.00;3.50
67376;PMS7003;54261;46.086;6.588;2024-01-30T01:02:10;8.75;7.00;4.25
67376;PMS7003;54261;46.086;6.588;2024-01-30T01:07:12;6.00;4.25;4.25
67376;PMS7003;54261;46.086;6.588;2024-01-30T01:12:14;5.25;5.25;3.50
67376;PMS7003;54261;46.086;6.588;2024-01-30T01:17:16;2.00;2.00;1.00
67376;PMS7003;54261;46.086;6.588;2024-01-30T01:22:19;6.50;6.50;5.50
67376;PMS7003;54261;46.086;6.588;2024-01-30T01:27:21;3.00;3.00;2.00
67376;PMS7003;54261;46.086;6.588;2024-01-30T01:32:23;5.25;5.25;3.50
67376;PMS7003;54261;46.086;6.588;2024-01-30T01:37:25;5.50;5.50;4.25
67376;PMS7003;54261;46.086;6.588;2024-01-30T01:42:28;5.50;5.50;4.25
67376;PMS7003;54261;46.086;6.588;2024-01-30T01:47:31;7.00;7.00;3.75
67376;PMS7003;54261;46.086;6.588;2024-01-30T01:52:33;5.00;5.00;5.00
67376;PMS7003;54261;46.086;6.588;2024-01-30T01:57:35;2.00;2.00;2.00
67376;PMS7003;54261;46.086;6.588;2024-01-30T02:02:38;5.50;3.50;2.25
67376;PMS7003;54261;46.086;6.588;2024-01-30T02:07:40;5.25;2.75;2.00
67376;PMS7003;54261;46.086;6.588;2024-01-30T02:12:43;2.75;2.75;2.00
67376;PMS7003;54261;46.086;6.588;2024-01-30T02:17:45;2.50;2.50;2.00
67376;PMS7003;54261;46.086;6.588;2024-01-30T02:22:47;2.75;2.75;2.00
67376;PMS7003;54261;46.086;6.588;2024-01-30T02:27:50;6.00;6.00;2.75
67376;PMS7003;54261;46.086;6.588;2024-01-30T02:32:52;5.50;5.50;2.00
67376;PMS7003;54261;46.086;6.588;2024-01-30T02:37:54;3.25;3.25;3.00
67376;PMS7003;54261;46.086;6.588;2024-01-30T02:42:57;4.25;4.25;3.00
67376;PMS7003;54261;46.086;6.588;2024-01-30T02:48:00;4.25;3.00;2.50
67376;PMS7003;54261;46.086;6.588;2024-01-30T02:53:02;4.50;4.50;3.00
67376;PMS7003;54261;46.086;6.588;2024-01-30T02:58:04;3.25;3.25;3.00
67376;PMS7003;54261;46.086;6.588;2024-01-30T03:03:06;1.50;1.50;1.00
67376;PMS7003;54261;46.086;6.588;2024-01-30T03:08:08;2.00;2.00;1.25
67376;PMS7003;54261;46.086;6.588;2024-01-30T03:13:10;2.00;2.00;1.00
67376;PMS7003;54261;46.086;6.588;2024-01-30T03:18:12;4.00;3.00;1.00
67376;PMS7003;54261;46.086;6.588;2024-01-30T03:23:14;4.00;2.75;2.00
67376;PMS7003;54261;46.086;6.588;2024-01-30T03:28:16;2.25;2.25;2.00
67376;PMS7003;54261;46.086;6.588;2024-01-30T03:33:18;3.00;3.00;2.00
67376;PMS7003;54261;46.086;6.588;2024-01-30T03:38:20;2.00;2.00;1.50
67376;PMS7003;54261;46.086;6.588;2024-01-30T03:43:22;4.25;3.00;2.00
67376;PMS7003;54261;46.086;6.588;2024-01-30T03:48:24;1.25;1.25;1.00
67376;PMS7003;54261;46.086;6.588;2024-01-30T03:53:27;3.75;2.25;2.00
67376;PMS7003;54261;46.086;6.588;2024-01-30T03:58:29;2.00;2.00;1.75
67376;PMS7003;54261;46.086;6.588;2024-01-30T04:03:31;1.00;1.00;1.00
67376;PMS7003;54261;46.086;6.588;2024-01-30T04:08:33;1.75;1.75;1.25
67376;PMS7003;54261;46.086;6.588;2024-01-30T04:13:35;2.00;2.00;1.00
67376;PMS7003;54261;46.086;6.588;2024-01-30T04:18:37;3.25;2.75;2.00
67376;PMS7003;54261;46.086;6.588;2024-01-30T04:23:40;2.25;2.25;2.00
67376;PMS7003;54261;46.086;6.588;2024-01-30T04:28:43;1.00;1.00;0.00
67376;PMS7003;54261;46.086;6.588;2024-01-30T04:33:46;2.25;2.00;1.00
67376;PMS7003;54261;46.086;6.588;2024-01-30T04:38:48;3.00;2.00;2.00
67376;PMS7003;54261;46.086;6.588;2024-01-30T04:43:50;1.00;1.00;1.00
67376;PMS7003;54261;46.086;6.588;2024-01-30T04:48:52;0.00;0.00;0.00
67376;PMS7003;54261;46.086;6.588;2024-01-30T04:53:54;1.25;1.25;1.00
67376;PMS7003;54261;46.086;6.588;2024-01-30T04:58:56;1.00;1.00;1.00
67376;PMS7003;54261;46.086;6.588;2024-01-30T05:03:58;0.75;0.75;0.75
67376;PMS7003;54261;46.086;6.588;2024-01-30T05:09:00;5.50;2.50;2.00
67376;PMS7003;54261;46.086;6.588;2024-01-30T05:14:02;2.00;2.00;2.00
67376;PMS7003;54261;46.086;6.588;2024-01-30T05:19:04;1.00;1.00;0.50
67376;PMS7003;54261;46.086;6.588;2024-01-30T05:24:07;0.75;0.75;0.25
67376;PMS7003;54261;46.086;6.588;2024-01-30T05:29:11;1.00;1.00;0.25
67376;PMS7003;54261;46.086;6.588;2024-01-30T05:34:13;1.00;1.00;0.75
67376;PMS7003;54261;46.086;6.588;2024-01-30T05:39:15;2.00;1.00;1.00
67376;PMS7003;54261;46.086;6.588;2024-01-30T05:44:17;2.00;1.00;0.75
67376;PMS7003;54261;46.086;6.588;2024-01-30T05:49:19;2.00;0.50;0.50
67376;PMS7003;54261;46.086;6.588;2024-01-30T05:54:21;0.50;0.50;0.25
67376;PMS7003;54261;46.086;6.588;2024-01-30T05:59:23;1.00;1.00;0.75
67376;PMS7003;54261;46.086;6.588;2024-01-30T06:04:24;3.00;3.00;2.00
67376;PMS7003;54261;46.086;6.588;2024-01-30T06:09:27;4.75;3.00;2.00
67376;PMS7003;54261;46.086;6.588;2024-01-30T06:14:30;2.00;2.00;1.25
67376;PMS7003;54261;46.086;6.588;2024-01-30T06:19:32;2.00;2.00;2.00
67376;PMS7003;54261;46.086;6.588;2024-01-30T06:24:34;3.00;3.00;1.00
67376;PMS7003;54261;46.086;6.588;2024-01-30T06:29:36;1.00;1.00;1.00
67376;PMS7003;54261;46.086;6.588;2024-01-30T06:34:38;2.00;2.00;1.00
67376;PMS7003;54261;46.086;6.588;2024-01-30T06:39:41;1.00;1.00;1.00
67376;PMS7003;54261;46.086;6.588;2024-01-30T06:44:43;1.00;1.00;1.00
67376;PMS7003;54261;46.086;6.588;2024-01-30T06:49:45;1.00;1.00;0.50
67376;PMS7003;54261;46.086;6.588;2024-01-30T06:54:47;1.75;1.75;1.50
67376;PMS7003;54261;46.086;6.588;2024-01-30T06:59:49;1.25;1.00;1.00
67376;PMS7003;54261;46.086;6.588;2024-01-30T07:04:51;1.50;1.50;1.00
67376;PMS7003;54261;46.086;6.588;2024-01-30T07:09:53;1.00;1.00;1.00
67376;PMS7003;54261;46.086;6.588;2024-01-30T07:14:58;3.00;2.00;1.00
67376;PMS7003;54261;46.086;6.588;2024-01-30T07:20:02;2.25;2.25;1.00
67376;PMS7003;54261;46.086;6.588;2024-01-30T07:25:05;2.25;1.75;1.25
67376;PMS7003;54261;46.086;6.588;2024-01-30T07:30:08;1.00;1.00;1.00
67376;PMS7003;54261;46.086;6.588;2024-01-30T07:35:10;3.00;1.00;1.00
67376;PMS7003;54261;46.086;6.588;2024-01-30T07:40:13;1.00;1.00;1.00
67376;PMS7003;54261;46.086;6.588;2024-01-30T07:45:15;1.00;1.00;1.00
67376;PMS7003;54261;46.086;6.588;2024-01-30T07:50:17;3.25;2.00;1.75
67376;PMS7003;54261;46.086;6.588;2024-01-30T07:55:20;1.50;1.50;1.00
67376;PMS7003;54261;46.086;6.588;2024-01-30T08:00:26;3.50;3.50;3.00
67376;PMS7003;54261;46.086;6.588;2024-01-30T08:05:28;4.00;4.00;2.75
67376;PMS7003;54261;46.086;6.588;2024-01-30T08:10:30;3.00;3.00;2.00
67376;PMS7003;54261;46.086;6.588;2024-01-30T08:15:33;3.50;3.50;2.00
67376;PMS7003;54261;46.086;6.588;2024-01-30T08:20:35;2.50;2.50;2.00
67376;PMS7003;54261;46.086;6.588;2024-01-30T08:25:37;4.00;2.75;1.50
67376;PMS7003;54261;46.086;6.588;2024-01-30T08:30:39;4.00;2.50;2.00
67376;PMS7003;54261;46.086;6.588;2024-01-30T08:35:41;3.75;3.00;2.75
67376;PMS7003;54261;46.086;6.588;2024-01-30T08:40:44;5.25;3.50;3.00
67376;PMS7003;54261;46.086;6.588;2024-01-30T08:45:46;3.00;3.00;2.00
67376;PMS7003;54261;46.086;6.588;2024-01-30T08:50:48;2.25;2.00;1.75
67376;PMS7003;54261;46.086;6.588;2024-01-30T08:55:50;4.50;3.50;3.00
67376;PMS7003;54261;46.086;6.588;2024-01-30T09:00:52;2.33;2.33;2.00
67376;PMS7003;54261;46.086;6.588;2024-01-30T09:05:54;2.00;2.00;1.50
67376;PMS7003;54261;46.086;6.588;2024-01-30T09:10:56;1.67;1.67;1.00
67376;PMS7003;54261;46.086;6.588;2024-01-30T09:15:58;2.67;2.67;2.00
67376;PMS7003;54261;46.086;6.588;2024-01-30T09:21:00;1.00;1.00;1.00
67376;PMS7003;54261;46.086;6.588;2024-01-30T09:26:02;2.50;2.25;1.25
67376;PMS7003;54261;46.086;6.588;2024-01-30T09:31:04;3.00;3.00;2.75
67376;PMS7003;54261;46.086;6.588;2024-01-30T09:36:11;6.25;3.25;2.50
67376;PMS7003;54261;46.086;6.588;2024-01-30T09:41:13;4.00;4.00;4.00
67376;PMS7003;54261;46.086;6.588;2024-01-30T09:46:17;2.00;2.00;2.00
67376;PMS7003;54261;46.086;6.588;2024-01-30T09:51:20;6.25;6.00;4.25
67376;PMS7003;54261;46.086;6.588;2024-01-30T09:56:22;7.50;5.50;5.00
67376;PMS7003;54261;46.086;6.588;2024-01-30T10:01:24;4.75;4.25;3.00
67376;PMS7003;54261;46.086;6.588;2024-01-30T10:06:27;3.00;3.00;2.00
67376;PMS7003;54261;46.086;6.588;2024-01-30T10:11:29;3.00;3.00;2.00
67376;PMS7003;54261;46.086;6.588;2024-01-30T10:16:32;3.00;3.00;3.00
67376;PMS7003;54261;46.086;6.588;2024-01-30T10:21:34;4.00;4.00;3.00
67376;PMS7003;54261;46.086;6.588;2024-01-30T10:26:37;4.75;4.75;3.00
67376;PMS7003;54261;46.086;6.588;2024-01-30T10:31:39;3.50;3.50;2.50
67376;PMS7003;54261;46.086;6.588;2024-01-30T10:36:42;6.00;6.00;3.25
67376;PMS7003;54261;46.086;6.588;2024-01-30T10:41:51;22.25;18.00;12.25
67376;PMS7003;54261;46.086;6.588;2024-01-30T10:46:59;10.25;10.25;7.75
67376;PMS7003;54261;46.086;6.588;2024-01-30T10:52:05;15.50;13.50;10.25
67376;PMS7003;54261;46.086;6.588;2024-01-30T10:57:07;9.00;9.00;7.00
67376;PMS7003;54261;46.086;6.588;2024-01-30T11:02:12;4.25;4.25;3.50
67376;PMS7003;54261;46.086;6.588;2024-01-30T11:07:16;6.75;6.75;6.50
67376;PMS7003;54261;46.086;6.588;2024-01-30T11:12:23;11.50;9.25;6.00
67376;PMS7003;54261;46.086;6.588;2024-01-30T11:17:27;11.00;9.00;7.50
67376;PMS7003;54261;46.086;6.588;2024-01-30T11:22:30;7.75;7.00;4.00
67376;PMS7003;54261;46.086;6.588;2024-01-30T11:27:32;4.00;3.25;3.00
67376;PMS7003;54261;46.086;6.588;2024-01-30T11:32:34;9.50;9.00;7.00
67376;PMS7003;54261;46.086;6.588;2024-01-30T11:37:37;9.50;9.00;7.75
67376;PMS7003;54261;46.086;6.588;2024-01-30T11:42:42;9.75;8.25;5.25
67376;PMS7003;54261;46.086;6.588;2024-01-30T11:47:44;11.50;10.00;9.00
67376;PMS7003;54261;46.086;6.588;2024-01-30T11:52:49;17.75;15.00;11.00
67376;PMS7003;54261;46.086;6.588;2024-01-30T11:57:55;16.00;12.00;10.00
67376;PMS7003;54261;46.086;6.588;2024-01-30T12:02:57;13.50;9.00;6.25
67376;PMS7003;54261;46.086;6.588;2024-01-30T12:08:00;16.75;12.25;9.00
67376;PMS7003;54261;46.086;6.588;2024-01-30T12:13:03;13.00;12.75;11.00
67376;PMS7003;54261;46.086;6.588;2024-01-30T12:18:06;16.00;12.75;5.75
67376;PMS7003;54261;46.086;6.588;2024-01-30T12:23:09;21.75;21.00;16.25
67376;PMS7003;54261;46.086;6.588;2024-01-30T12:28:13;19.50;16.50;10.25
67376;PMS7003;54261;46.086;6.588;2024-01-30T12:33:17;18.50;17.50;14.00
67376;PMS7003;54261;46.086;6.588;2024-01-30T12:38:23;17.25;17.25;12.00
67376;PMS7003;54261;46.086;6.588;2024-01-30T12:43:26;22.50;20.25;17.00
67376;PMS7003;54261;46.086;6.588;2024-01-30T12:48:39;22.75;22.50;14.50
67376;PMS7003;54261;46.086;6.588;2024-01-30T12:53:41;18.50;16.25;12.75
67376;PMS7003;54261;46.086;6.588;2024-01-30T12:58:43;15.25;15.25;11.50
67376;PMS7003;54261;46.086;6.588;2024-01-30T13:03:48;17.75;15.50;13.25
67376;PMS7003;54261;46.086;6.588;2024-01-30T13:08:50;20.50;15.25;12.75
67376;PMS7003;54261;46.086;6.588;2024-01-30T13:13:52;16.75;16.75;10.00
67376;PMS7003;54261;46.086;6.588;2024-01-30T13:18:55;13.50;11.25;8.75
67376;PMS7003;54261;46.086;6.588;2024-01-30T13:23:57;21.25;17.00;10.25
67376;PMS7003;54261;46.086;6.588;2024-01-30T13:28:59;12.75;10.75;8.00
67376;PMS7003;54261;46.086;6.588;2024-01-30T13:34:01;14.50;13.75;11.25
67376;PMS7003;54261;46.086;6.588;2024-01-30T13:39:05;15.25;15.25;12.00
67376;PMS7003;54261;46.086;6.588;2024-01-30T13:44:11;16.50;14.50;11.50
67376;PMS7003;54261;46.086;6.588;2024-01-30T13:49:13;17.25;15.75;12.25
67376;PMS7003;54261;46.086;6.588;2024-01-30T13:54:15;18.00;17.25;13.00
67376;PMS7003;54261;46.086;6.588;2024-01-30T13:59:17;15.50;15.25;11.75
67376;PMS7003;54261;46.086;6.588;2024-01-30T14:04:25;16.00;14.75;9.50
67376;PMS7003;54261;46.086;6.588;2024-01-30T14:09:27;14.00;12.67;9.00
67376;PMS7003;54261;46.086;6.588;2024-01-30T14:14:29;14.75;14.00;10.00
67376;PMS7003;54261;46.086;6.588;2024-01-30T14:19:31;14.50;14.00;10.75
67376;PMS7003;54261;46.086;6.588;2024-01-30T14:24:33;13.00;12.75;9.25
67376;PMS7003;54261;46.086;6.588;2024-01-30T14:29:35;16.25;15.50;12.50
67376;PMS7003;54261;46.086;6.588;2024-01-30T14:34:37;12.25;12.25;10.00
67376;PMS7003;54261;46.086;6.588;2024-01-30T14:39:39;14.50;12.25;9.75
67376;PMS7003;54261;46.086;6.588;2024-01-30T14:44:42;16.50;15.00;11.25
67376;PMS7003;54261;46.086;6.588;2024-01-30T14:49:44;14.25;13.50;10.00
67376;PMS7003;54261;46.086;6.588;2024-01-30T14:54:46;14.33;13.67;11.33
67376;PMS7003;54261;46.086;6.588;2024-01-30T14:59:48;15.33;15.33;12.33
67376;PMS7003;54261;46.086;6.588;2024-01-30T15:04:50;8.33;8.33;6.33
67376;PMS7003;54261;46.086;6.588;2024-01-30T15:09:53;11.67;11.00;8.33
67376;PMS7003;54261;46.086;6.588;2024-01-30T15:14:55;14.00;13.67;10.33
67376;PMS7003;54261;46.086;6.588;2024-01-30T15:19:57;16.00;16.00;10.75
67376;PMS7003;54261;46.086;6.588;2024-01-30T15:25:00;18.00;15.75;11.25
67376;PMS7003;54261;46.086;6.588;2024-01-30T15:30:02;22.50;20.50;14.75
67376;PMS7003;54261;46.086;6.588;2024-01-30T15:35:04;19.00;17.00;12.00
67376;PMS7003;54261;46.086;6.588;2024-01-30T15:40:08;19.00;18.00;14.50
67376;PMS7003;54261;46.086;6.588;2024-01-30T15:45:10;21.25;18.25;14.00
67376;PMS7003;54261;46.086;6.588;2024-01-30T15:50:12;19.50;18.00;14.00
67376;PMS7003;54261;46.086;6.588;2024-01-30T15:55:14;24.50;20.50;14.75
67376;PMS7003;54261;46.086;6.588;2024-01-30T16:00:17;20.50;17.50;14.00
67376;PMS7003;54261;46.086;6.588;2024-01-30T16:05:19;20.00;18.50;14.25
67376;PMS7003;54261;46.086;6.588;2024-01-30T16:10:21;21.75;20.50;16.75
67376;PMS7003;54261;46.086;6.588;2024-01-30T16:15:23;15.25;15.25;12.25
67376;PMS7003;54261;46.086;6.588;2024-01-30T16:20:26;9.67;9.67;8.00
67376;PMS7003;54261;46.086;6.588;2024-01-30T16:25:28;11.50;10.00;7.00
67376;PMS7003;54261;46.086;6.588;2024-01-30T16:30:31;9.67;7.00;4.33
67376;PMS7003;54261;46.086;6.588;2024-01-30T16:35:32;5.75;5.00;4.25
67376;PMS7003;54261;46.086;6.588;2024-01-30T16:40:47;6.33;5.33;5.00
67376;PMS7003;54261;46.086;6.588;2024-01-30T16:45:49;7.50;7.50;5.00
67376;PMS7003;54261;46.086;6.588;2024-01-30T16:50:52;6.00;6.00;5.00
67376;PMS7003;54261;46.086;6.588;2024-01-30T16:55:54;7.50;6.00;4.00
67376;PMS7003;54261;46.086;6.588;2024-01-30T17:00:56;6.50;4.75;4.75
67376;PMS7003;54261;46.086;6.588;2024-01-30T17:05:58;7.50;6.00;4.50
67376;PMS7003;54261;46.086;6.588;2024-01-30T17:11:06;6.25;6.25;5.00
67376;PMS7003;54261;46.086;6.588;2024-01-30T17:16:08;9.25;9.00;7.25
67376;PMS7003;54261;46.086;6.588;2024-01-30T17:21:15;11.25;8.25;6.00
67376;PMS7003;54261;46.086;6.588;2024-01-30T17:26:20;10.25;10.00;8.00
67376;PMS7003;54261;46.086;6.588;2024-01-30T17:31:23;10.75;9.25;6.50
67376;PMS7003;54261;46.086;6.588;2024-01-30T17:36:25;5.25;5.25;4.00
67376;PMS7003;54261;46.086;6.588;2024-01-30T17:41:27;6.50;5.00;4.50
67376;PMS7003;54261;46.086;6.588;2024-01-30T17:46:29;6.00;6.00;4.00
67376;PMS7003;54261;46.086;6.588;2024-01-30T17:51:32;10.25;8.00;5.00
67376;PMS7003;54261;46.086;6.588;2024-01-30T17:56:34;6.00;6.00;5.00
67376;PMS7003;54261;46.086;6.588;2024-01-30T18:01:36;9.00;8.00;5.75
67376;PMS7003;54261;46.086;6.588;2024-01-30T18:06:38;11.25;9.25;6.00
67376;PMS7003;54261;46.086;6.588;2024-01-30T18:11:40;4.25;4.25;3.00
67376;PMS7003;54261;46.086;6.588;2024-01-30T18:16:42;9.25;7.00;4.50
67376;PMS7003;54261;46.086;6.588;2024-01-30T18:21:44;11.75;10.25;7.25
67376;PMS7003;54261;46.086;6.588;2024-01-30T18:26:46;8.75;6.25;4.25
67376;PMS7003;54261;46.086;6.588;2024-01-30T18:31:48;6.00;6.00;5.00
67376;PMS7003;54261;46.086;6.588;2024-01-30T18:36:50;4.75;4.75;3.25
67376;PMS7003;54261;46.086;6.588;2024-01-30T18:41:52;4.50;4.50;3.00
67376;PMS7003;54261;46.086;6.588;2024-01-30T18:46:54;3.75;3.75;3.00
67376;PMS7003;54261;46.086;6.588;2024-01-30T18:51:56;5.75;4.25;3.00
67376;PMS7003;54261;46.086;6.588;2024-01-30T18:57:00;5.00;4.00;3.00
67376;PMS7003;54261;46.086;6.588;2024-01-30T19:02:02;3.50;3.25;2.75
67376;PMS7003;54261;46.086;6.588;2024-01-30T19:07:04;2.00;2.00;2.00
67376;PMS7003;54261;46.086;6.588;2024-01-30T19:12:06;8.00;3.00;2.00
67376;PMS7003;54261;46.086;6.588;2024-01-30T19:17:08;3.75;3.25;2.25
67376;PMS7003;54261;46.086;6.588;2024-01-30T19:22:10;4.00;4.00;3.00
67376;PMS7003;54261;46.086;6.588;2024-01-30T19:27:12;6.50;4.50;3.25
67376;PMS7003;54261;46.086;6.588;2024-01-30T19:32:14;4.25;4.00;3.00
67376;PMS7003;54261;46.086;6.588;2024-01-30T19:37:16;7.75;6.00;4.00
67376;PMS7003;54261;46.086;6.588;2024-01-30T19:42:18;2.75;2.75;2.00
67376;PMS7003;54261;46.086;6.588;2024-01-30T19:47:20;3.00;3.00;2.75
67376;PMS7003;54261;46.086;6.588;2024-01-30T19:52:22;8.00;7.00;4.25
67376;PMS7003;54261;46.086;6.588;2024-01-30T19:57:24;6.75;6.00;4.00
67376;PMS7003;54261;46.086;6.588;2024-01-30T20:02:26;8.25;5.75;3.00
67376;PMS7003;54261;46.086;6.588;2024-01-30T20:07:29;5.50;5.50;4.00
67376;PMS7003;54261;46.086;6.588;2024-01-30T20:12:31;4.00;4.00;3.50
67376;PMS7003;54261;46.086;6.588;2024-01-30T20:17:33;7.75;6.25;4.25
67376;PMS7003;54261;46.086;6.588;2024-01-30T20:22:35;6.25;6.25;3.25
67376;PMS7003;54261;46.086;6.588;2024-01-30T20:27:37;7.00;6.50;4.00
67376;PMS7003;54261;46.086;6.588;2024-01-30T20:32:39;5.25;5.25;4.00
67376;PMS7003;54261;46.086;6.588;2024-01-30T20:37:41;7.75;7.25;5.75
67376;PMS7003;54261;46.086;6.588;2024-01-30T20:42:43;6.00;6.00;3.00
67376;PMS7003;54261;46.086;6.588;2024-01-30T20:47:45;7.25;6.00;2.50
67376;PMS7003;54261;46.086;6.588;2024-01-30T20:52:47;12.00;9.75;7.25
67376;PMS7003;54261;46.086;6.588;2024-01-30T20:57:49;7.50;7.50;5.75
67376;PMS7003;54261;46.086;6.588;2024-01-30T21:02:52;7.75;7.75;6.25
67376;PMS7003;54261;46.086;6.588;2024-01-30T21:07:54;4.75;3.50;2.50
67376;PMS7003;54261;46.086;6.588;2024-01-30T21:12:57;6.75;6.75;4.00
67376;PMS7003;54261;46.086;6.588;2024-01-30T21:17:59;15.00;14.75;13.00
67376;PMS7003;54261;46.086;6.588;2024-01-30T21:23:01;16.75;15.75;12.50
67376;PMS7003;54261;46.086;6.588;2024-01-30T21:28:03;5.50;4.00;3.50
67376;PMS7003;54261;46.086;6.588;2024-01-30T21:33:05;4.25;4.25;2.25
67376;PMS7003;54261;46.086;6.588;2024-01-30T21:38:07;2.75;2.75;2.00
67376;PMS7003;54261;46.086;6.588;2024-01-30T21:43:09;2.50;2.50;2.25
67376;PMS7003;54261;46.086;6.588;2024-01-30T21:48:11;4.00;3.00;2.00
67376;PMS7003;54261;46.086;6.588;2024-01-30T21:53:13;7.75;4.75;4.00
67376;PMS7003;54261;46.086;6.588;2024-01-30T21:58:15;9.25;4.75;4.00
67376;PMS7003;54261;46.086;6.588;2024-01-30T22:03:17;8.00;6.75;3.75
67376;PMS7003;54261;46.086;6.588;2024-01-30T22:08:19;2.00;2.00;1.25
67376;PMS7003;54261;46.086;6.588;2024-01-30T22:13:21;3.75;2.25;1.25
67376;PMS7003;54261;46.086;6.588;2024-01-30T22:18:24;3.50;3.50;2.50
67376;PMS7003;54261;46.086;6.588;2024-01-30T22:23:26;3.00;3.00;2.75
67376;PMS7003;54261;46.086;6.588;2024-01-30T22:28:28;24.50;22.00;15.25
67376;PMS7003;54261;46.086;6.588;2024-01-30T22:33:30;8.00;6.75;3.75
67376;PMS7003;54261;46.086;6.588;2024-01-30T22:38:32;7.00;7.00;4.25
67376;PMS7003;54261;46.086;6.588;2024-01-30T22:43:34;5.25;3.50;3.00
67376;PMS7003;54261;46.086;6.588;2024-01-30T22:48:36;2.00;2.00;2.00
67376;PMS7003;54261;46.086;6.588;2024-01-30T22:53:38;2.50;2.50;2.00
67376;PMS7003;54261;46.086;6.588;2024-01-30T22:58:40;6.00;6.00;4.00
67376;PMS7003;54261;46.086;6.588;2024-01-30T23:03:43;3.00;2.00;1.50
67376;PMS7003;54261;46.086;6.588;2024-01-30T23:08:45;2.25;2.25;2.00
67376;PMS7003;54261;46.086;6.588;2024-01-30T23:13:46;3.00;3.00;2.75
67376;PMS7003;54261;46.086;6.588;2024-01-30T23:18:49;5.25;3.00;2.00
67376;PMS7003;54261;46.086;6.588;2024-01-30T23:23:52;2.25;2.25;2.00
67376;PMS7003;54261;46.086;6.588;2024-01-30T23:28:54;6.75;4.50;3.50
67376;PMS7003;54261;46.086;6.588;2024-01-30T23:33:55;8.75;8.75;4.50
67376;PMS7003;54261;46.086;6.588;2024-01-30T23:38:58;5.00;5.00;3.00
67376;PMS7003;54261;46.086;6.588;2024-01-30T23:43:59;11.50;10.50;8.00
67376;PMS7003;54261;46.086;6.588;2024-01-30T23:49:02;6.00;6.00;4.25
67376;PMS7003;54261;46.086;6.588;2024-01-30T23:54:04;7.75;6.25;3.00
67376;PMS7003;54261;46.086;6.588;2024-01-30T23:59:06;3.75;3.75;2.75
